sensor_id;sensor_type;location;lat;lon;timestamp;P1;durP1;ratioP1;P2;durP2;ratioP2
74616;SDS011;63123;50.906;4.198;2023-03-23T00:00:55;3.10;;;2.83;;
74616;SDS011;63123;50.906;4.198;2023-03-23T00:03:21;3.17;;;2.70;;
74616;SDS011;63123;50.906;4.198;2023-03-23T00:05:47;3.72;;;3.30;;
74616;SDS011;63123;50.906;4.198;2023-03-23T00:08:19;3.88;;;3.00;;
74616;SDS011;63123;50.906;4.198;2023-03-23T00:10:48;4.05;;;3.17;;
74616;SDS011;63123;50.906;4.198;2023-03-23T00:13:17;3.08;;;2.78;;
74616;SDS011;63123;50.906;4.198;2023-03-23T00:15:44;3.50;;;3.10;;
74616;SDS011;63123;50.906;4.198;2023-03-23T00:18:13;3.53;;;2.80;;
74616;SDS011;63123;50.906;4.198;2023-03-23T00:20:46;3.88;;;3.05;;
74616;SDS011;63123;50.906;4.198;2023-03-23T00:23:16;3.30;;;3.00;;
74616;SDS011;63123;50.906;4.198;2023-03-23T00:25:53;3.40;;;2.60;;
74616;SDS011;63123;50.906;4.198;2023-03-23T00:28:23;3.65;;;2.60;;
74616;SDS011;63123;50.906;4.198;2023-03-23T00:30:57;3.20;;;2.90;;
74616;SDS011;63123;50.906;4.198;2023-03-23T00:33:24;3.88;;;3.10;;
74616;SDS011;63123;50.906;4.198;2023-03-23T00:35:52;3.55;;;2.85;;
74616;SDS011;63123;50.906;4.198;2023-03-23T00:38:19;3.55;;;2.75;;
74616;SDS011;63123;50.906;4.198;2023-03-23T00:40:45;3.40;;;3.10;;
74616;SDS011;63123;50.906;4.198;2023-03-23T00:43:12;3.08;;;2.78;;
74616;SDS011;63123;50.906;4.198;2023-03-23T00:45:40;4.10;;;2.50;;
74616;SDS011;63123;50.906;4.198;2023-03-23T00:48:05;4.03;;;2.90;;
74616;SDS011;63123;50.906;4.198;2023-03-23T00:50:31;3.13;;;2.72;;
74616;SDS011;63123;50.906;4.198;2023-03-23T00:52:57;2.83;;;2.22;;
74616;SDS011;63123;50.906;4.198;2023-03-23T00:55:23;3.88;;;2.70;;
74616;SDS011;63123;50.906;4.198;2023-03-23T00:57:50;4.13;;;2.90;;
74616;SDS011;63123;50.906;4.198;2023-03-23T01:00:16;3.75;;;2.70;;
74616;SDS011;63123;50.906;4.198;2023-03-23T01:02:43;2.85;;;2.50;;
74616;SDS011;63123;50.906;4.198;2023-03-23T01:05:10;2.88;;;2.50;;
74616;SDS011;63123;50.906;4.198;2023-03-23T01:07:36;3.17;;;2.38;;
74616;SDS011;63123;50.906;4.198;2023-03-23T01:10:02;4.32;;;3.13;;
74616;SDS011;63123;50.906;4.198;2023-03-23T01:12:29;2.80;;;2.40;;
74616;SDS011;63123;50.906;4.198;2023-03-23T01:14:55;2.70;;;2.50;;
74616;SDS011;63123;50.906;4.198;2023-03-23T01:17:20;2.72;;;2.38;;
74616;SDS011;63123;50.906;4.198;2023-03-23T01:19:46;2.90;;;2.60;;
74616;SDS011;63123;50.906;4.198;2023-03-23T01:22:12;3.22;;;2.40;;
74616;SDS011;63123;50.906;4.198;2023-03-23T01:24:37;2.90;;;2.40;;
74616;SDS011;63123;50.906;4.198;2023-03-23T01:27:03;2.53;;;2.30;;
74616;SDS011;63123;50.906;4.198;2023-03-23T01:29:32;2.25;;;2.05;;
74616;SDS011;63123;50.906;4.198;2023-03-23T01:31:59;3.10;;;2.45;;
74616;SDS011;63123;50.906;4.198;2023-03-23T01:34:25;3.25;;;2.40;;
74616;SDS011;63123;50.906;4.198;2023-03-23T01:36:50;2.40;;;2.20;;
74616;SDS011;63123;50.906;4.198;2023-03-23T01:39:16;3.72;;;2.15;;
74616;SDS011;63123;50.906;4.198;2023-03-23T01:41:41;2.50;;;2.30;;
74616;SDS011;63123;50.906;4.198;2023-03-23T01:44:59;2.72;;;2.33;;
74616;SDS011;63123;50.906;4.198;2023-03-23T01:46:55;2.45;;;2.00;;
74616;SDS011;63123;50.906;4.198;2023-03-23T01:49:21;2.55;;;2.35;;
74616;SDS011;63123;50.906;4.198;2023-03-23T01:52:02;2.30;;;2.10;;
74616;SDS011;63123;50.906;4.198;2023-03-23T01:54:31;2.92;;;2.35;;
74616;SDS011;63123;50.906;4.198;2023-03-23T01:57:01;3.08;;;2.13;;
74616;SDS011;63123;50.906;4.198;2023-03-23T01:59:30;3.10;;;2.47;;
74616;SDS011;63123;50.906;4.198;2023-03-23T02:01:58;2.42;;;2.00;;
74616;SDS011;63123;50.906;4.198;2023-03-23T02:04:25;2.70;;;2.05;;
74616;SDS011;63123;50.906;4.198;2023-03-23T02:06:53;2.58;;;2.03;;
74616;SDS011;63123;50.906;4.198;2023-03-23T02:09:26;2.22;;;2.03;;
74616;SDS011;63123;50.906;4.198;2023-03-23T02:11:52;2.28;;;2.05;;
74616;SDS011;63123;50.906;4.198;2023-03-23T02:14:19;2.25;;;2.05;;
74616;SDS011;63123;50.906;4.198;2023-03-23T02:35:55;2.10;;;1.92;;
74616;SDS011;63123;50.906;4.198;2023-03-23T02:38:32;2.40;;;2.20;;
74616;SDS011;63123;50.906;4.198;2023-03-23T02:41:19;2.38;;;1.80;;
74616;SDS011;63123;50.906;4.198;2023-03-23T02:43:48;2.60;;;2.00;;
74616;SDS011;63123;50.906;4.198;2023-03-23T02:46:15;2.13;;;1.92;;
74616;SDS011;63123;50.906;4.198;2023-03-23T02:48:41;2.85;;;2.05;;
74616;SDS011;63123;50.906;4.198;2023-03-23T02:51:09;2.55;;;1.80;;
74616;SDS011;63123;50.906;4.198;2023-03-23T02:53:37;1.85;;;1.60;;
74616;SDS011;63123;50.906;4.198;2023-03-23T02:56:07;2.47;;;1.70;;
74616;SDS011;63123;50.906;4.198;2023-03-23T02:58:35;2.45;;;1.75;;
74616;SDS011;63123;50.906;4.198;2023-03-23T03:01:14;1.77;;;1.63;;
74616;SDS011;63123;50.906;4.198;2023-03-23T03:03:40;2.33;;;1.85;;
74616;SDS011;63123;50.906;4.198;2023-03-23T03:09:14;2.97;;;2.30;;
74616;SDS011;63123;50.906;4.198;2023-03-23T03:12:04;2.10;;;1.90;;
74616;SDS011;63123;50.906;4.198;2023-03-23T03:17:14;2.55;;;1.67;;
74616;SDS011;63123;50.906;4.198;2023-03-23T03:19:42;2.53;;;1.63;;
74616;SDS011;63123;50.906;4.198;2023-03-23T03:22:11;2.13;;;1.55;;
74616;SDS011;63123;50.906;4.198;2023-03-23T03:24:38;2.78;;;2.50;;
74616;SDS011;63123;50.906;4.198;2023-03-23T03:27:05;3.00;;;2.00;;
74616;SDS011;63123;50.906;4.198;2023-03-23T03:29:40;4.38;;;2.08;;
74616;SDS011;63123;50.906;4.198;2023-03-23T03:32:07;2.30;;;1.70;;
74616;SDS011;63123;50.906;4.198;2023-03-23T03:34:37;1.70;;;1.40;;
74616;SDS011;63123;50.906;4.198;2023-03-23T03:37:03;2.20;;;1.50;;
74616;SDS011;63123;50.906;4.198;2023-03-23T03:39:31;1.90;;;1.70;;
74616;SDS011;63123;50.906;4.198;2023-03-23T03:42:00;1.80;;;1.58;;
74616;SDS011;63123;50.906;4.198;2023-03-23T03:44:26;1.70;;;1.50;;
74616;SDS011;63123;50.906;4.198;2023-03-23T03:46:52;2.65;;;1.75;;
74616;SDS011;63123;50.906;4.198;2023-03-23T03:49:17;1.60;;;1.50;;
74616;SDS011;63123;50.906;4.198;2023-03-23T03:51:43;2.67;;;1.83;;
74616;SDS011;63123;50.906;4.198;2023-03-23T03:54:09;2.95;;;1.80;;
74616;SDS011;63123;50.906;4.198;2023-03-23T03:56:35;1.83;;;1.50;;
74616;SDS011;63123;50.906;4.198;2023-03-23T03:59:05;2.03;;;1.40;;
74616;SDS011;63123;50.906;4.198;2023-03-23T04:01:33;1.50;;;1.40;;
74616;SDS011;63123;50.906;4.198;2023-03-23T04:03:59;2.15;;;1.63;;
74616;SDS011;63123;50.906;4.198;2023-03-23T04:06:25;2.67;;;1.50;;
74616;SDS011;63123;50.906;4.198;2023-03-23T04:08:53;1.73;;;1.63;;
74616;SDS011;63123;50.906;4.198;2023-03-23T04:11:24;2.45;;;1.58;;
74616;SDS011;63123;50.906;4.198;2023-03-23T04:13:51;1.73;;;1.50;;
74616;SDS011;63123;50.906;4.198;2023-03-23T04:16:16;1.70;;;1.40;;
74616;SDS011;63123;50.906;4.198;2023-03-23T04:18:42;2.00;;;1.45;;
74616;SDS011;63123;50.906;4.198;2023-03-23T04:21:08;1.90;;;1.70;;
74616;SDS011;63123;50.906;4.198;2023-03-23T04:23:34;2.13;;;1.13;;
74616;SDS011;63123;50.906;4.198;2023-03-23T04:26:00;3.10;;;2.28;;
74616;SDS011;63123;50.906;4.198;2023-03-23T04:28:28;2.10;;;1.52;;
74616;SDS011;63123;50.906;4.198;2023-03-23T04:30:54;2.17;;;1.52;;
74616;SDS011;63123;50.906;4.198;2023-03-23T04:33:23;3.13;;;1.38;;
74616;SDS011;63123;50.906;4.198;2023-03-23T04:35:54;2.28;;;1.48;;
74616;SDS011;63123;50.906;4.198;2023-03-23T04:38:21;2.55;;;1.50;;
74616;SDS011;63123;50.906;4.198;2023-03-23T04:40:49;2.08;;;1.35;;
74616;SDS011;63123;50.906;4.198;2023-03-23T04:43:16;2.30;;;1.60;;
74616;SDS011;63123;50.906;4.198;2023-03-23T04:45:46;1.23;;;1.10;;
74616;SDS011;63123;50.906;4.198;2023-03-23T04:48:16;2.72;;;1.50;;
74616;SDS011;63123;50.906;4.198;2023-03-23T04:50:43;2.55;;;1.73;;
74616;SDS011;63123;50.906;4.198;2023-03-23T04:53:09;1.67;;;1.25;;
74616;SDS011;63123;50.906;4.198;2023-03-23T04:55:35;2.17;;;1.33;;
74616;SDS011;63123;50.906;4.198;2023-03-23T04:58:05;1.88;;;1.20;;
74616;SDS011;63123;50.906;4.198;2023-03-23T05:00:32;2.08;;;1.40;;
74616;SDS011;63123;50.906;4.198;2023-03-23T05:02:58;1.80;;;1.50;;
74616;SDS011;63123;50.906;4.198;2023-03-23T05:05:26;1.60;;;1.10;;
74616;SDS011;63123;50.906;4.198;2023-03-23T05:07:54;1.98;;;1.23;;
74616;SDS011;63123;50.906;4.198;2023-03-23T05:10:20;2.00;;;1.30;;
74616;SDS011;63123;50.906;4.198;2023-03-23T05:12:45;2.58;;;1.63;;
74616;SDS011;63123;50.906;4.198;2023-03-23T05:15:12;2.03;;;1.58;;
74616;SDS011;63123;50.906;4.198;2023-03-23T05:17:39;2.10;;;1.50;;
74616;SDS011;63123;50.906;4.198;2023-03-23T05:20:10;1.52;;;1.23;;
74616;SDS011;63123;50.906;4.198;2023-03-23T05:22:38;2.03;;;1.23;;
74616;SDS011;63123;50.906;4.198;2023-03-23T05:25:04;1.90;;;1.20;;
74616;SDS011;63123;50.906;4.198;2023-03-23T05:27:33;1.60;;;1.23;;
74616;SDS011;63123;50.906;4.198;2023-03-23T05:29:59;1.25;;;1.10;;
74616;SDS011;63123;50.906;4.198;2023-03-23T05:32:26;2.15;;;1.30;;
74616;SDS011;63123;50.906;4.198;2023-03-23T05:34:54;2.53;;;1.30;;
74616;SDS011;63123;50.906;4.198;2023-03-23T05:37:21;1.67;;;1.20;;
74616;SDS011;63123;50.906;4.198;2023-03-23T05:39:48;1.70;;;1.40;;
74616;SDS011;63123;50.906;4.198;2023-03-23T05:42:13;1.48;;;1.10;;
74616;SDS011;63123;50.906;4.198;2023-03-23T05:44:39;3.15;;;1.48;;
74616;SDS011;63123;50.906;4.198;2023-03-23T05:47:05;3.28;;;1.48;;
74616;SDS011;63123;50.906;4.198;2023-03-23T05:49:30;1.98;;;1.30;;
74616;SDS011;63123;50.906;4.198;2023-03-23T05:51:56;2.70;;;1.50;;
74616;SDS011;63123;50.906;4.198;2023-03-23T05:54:21;2.15;;;1.55;;
74616;SDS011;63123;50.906;4.198;2023-03-23T05:56:47;2.28;;;1.50;;
74616;SDS011;63123;50.906;4.198;2023-03-23T05:59:13;3.35;;;1.88;;
74616;SDS011;63123;50.906;4.198;2023-03-23T06:01:39;2.95;;;1.67;;
74616;SDS011;63123;50.906;4.198;2023-03-23T06:04:05;1.90;;;1.13;;
74616;SDS011;63123;50.906;4.198;2023-03-23T06:06:31;2.13;;;1.40;;
74616;SDS011;63123;50.906;4.198;2023-03-23T06:08:57;2.17;;;1.23;;
74616;SDS011;63123;50.906;4.198;2023-03-23T06:11:23;1.52;;;1.40;;
74616;SDS011;63123;50.906;4.198;2023-03-23T06:13:50;1.73;;;1.30;;
74616;SDS011;63123;50.906;4.198;2023-03-23T06:16:17;2.10;;;1.55;;
74616;SDS011;63123;50.906;4.198;2023-03-23T06:18:43;2.80;;;1.58;;
74616;SDS011;63123;50.906;4.198;2023-03-23T06:21:09;1.70;;;1.30;;
74616;SDS011;63123;50.906;4.198;2023-03-23T06:23:35;2.92;;;1.45;;
74616;SDS011;63123;50.906;4.198;2023-03-23T06:26:03;1.67;;;1.10;;
74616;SDS011;63123;50.906;4.198;2023-03-23T06:28:30;2.80;;;2.25;;
74616;SDS011;63123;50.906;4.198;2023-03-23T06:31:00;2.50;;;1.38;;
74616;SDS011;63123;50.906;4.198;2023-03-23T06:33:28;1.95;;;1.00;;
74616;SDS011;63123;50.906;4.198;2023-03-23T06:35:53;1.65;;;1.08;;
74616;SDS011;63123;50.906;4.198;2023-03-23T06:38:20;2.70;;;1.48;;
74616;SDS011;63123;50.906;4.198;2023-03-23T06:40:46;1.80;;;1.00;;
74616;SDS011;63123;50.906;4.198;2023-03-23T06:43:13;1.98;;;1.10;;
74616;SDS011;63123;50.906;4.198;2023-03-23T06:45:39;2.08;;;1.05;;
74616;SDS011;63123;50.906;4.198;2023-03-23T06:48:04;1.23;;;0.95;;
74616;SDS011;63123;50.906;4.198;2023-03-23T06:50:30;1.88;;;1.00;;
74616;SDS011;63123;50.906;4.198;2023-03-23T06:52:56;2.17;;;1.15;;
74616;SDS011;63123;50.906;4.198;2023-03-23T06:55:22;1.13;;;0.90;;
74616;SDS011;63123;50.906;4.198;2023-03-23T06:57:47;1.50;;;1.13;;
74616;SDS011;63123;50.906;4.198;2023-03-23T07:00:13;3.00;;;1.10;;
74616;SDS011;63123;50.906;4.198;2023-03-23T07:02:39;1.33;;;1.08;;
74616;SDS011;63123;50.906;4.198;2023-03-23T07:05:06;1.98;;;0.93;;
74616;SDS011;63123;50.906;4.198;2023-03-23T07:07:34;1.50;;;0.77;;
74616;SDS011;63123;50.906;4.198;2023-03-23T07:10:00;1.85;;;1.02;;
74616;SDS011;63123;50.906;4.198;2023-03-23T07:12:26;1.10;;;1.00;;
74616;SDS011;63123;50.906;4.198;2023-03-23T07:14:52;1.85;;;1.00;;
74616;SDS011;63123;50.906;4.198;2023-03-23T07:17:17;1.05;;;0.90;;
74616;SDS011;63123;50.906;4.198;2023-03-23T07:19:43;1.42;;;1.10;;
74616;SDS011;63123;50.906;4.198;2023-03-23T07:22:09;0.85;;;0.75;;
74616;SDS011;63123;50.906;4.198;2023-03-23T07:24:35;1.75;;;0.90;;
74616;SDS011;63123;50.906;4.198;2023-03-23T07:27:00;1.20;;;1.00;;
74616;SDS011;63123;50.906;4.198;2023-03-23T07:29:26;1.27;;;0.98;;
74616;SDS011;63123;50.906;4.198;2023-03-23T07:31:52;1.67;;;1.00;;
74616;SDS011;63123;50.906;4.198;2023-03-23T07:34:18;1.52;;;1.00;;
74616;SDS011;63123;50.906;4.198;2023-03-23T07:36:44;1.77;;;0.90;;
74616;SDS011;63123;50.906;4.198;2023-03-23T07:39:10;1.70;;;1.13;;
74616;SDS011;63123;50.906;4.198;2023-03-23T07:41:37;1.33;;;1.20;;
74616;SDS011;63123;50.906;4.198;2023-03-23T07:44:03;0.93;;;0.88;;
74616;SDS011;63123;50.906;4.198;2023-03-23T07:46:29;2.10;;;1.00;;
74616;SDS011;63123;50.906;4.198;2023-03-23T07:48:55;2.05;;;1.10;;
74616;SDS011;63123;50.906;4.198;2023-03-23T07:51:21;2.47;;;1.00;;
74616;SDS011;63123;50.906;4.198;2023-03-23T07:53:47;1.65;;;0.90;;
74616;SDS011;63123;50.906;4.198;2023-03-23T07:56:13;1.65;;;1.00;;
74616;SDS011;63123;50.906;4.198;2023-03-23T07:58:40;1.98;;;1.20;;
74616;SDS011;63123;50.906;4.198;2023-03-23T08:01:06;2.10;;;1.00;;
74616;SDS011;63123;50.906;4.198;2023-03-23T08:03:33;1.75;;;1.20;;
74616;SDS011;63123;50.906;4.198;2023-03-23T08:05:59;3.28;;;1.30;;
74616;SDS011;63123;50.906;4.198;2023-03-23T08:08:25;1.73;;;1.17;;
74616;SDS011;63123;50.906;4.198;2023-03-23T08:10:51;1.63;;;1.17;;
74616;SDS011;63123;50.906;4.198;2023-03-23T08:13:17;2.63;;;1.15;;
74616;SDS011;63123;50.906;4.198;2023-03-23T08:15:43;2.10;;;1.10;;
74616;SDS011;63123;50.906;4.198;2023-03-23T08:18:09;1.50;;;0.90;;
74616;SDS011;63123;50.906;4.198;2023-03-23T08:20:36;1.65;;;0.95;;
74616;SDS011;63123;50.906;4.198;2023-03-23T08:23:02;2.63;;;1.33;;
74616;SDS011;63123;50.906;4.198;2023-03-23T08:25:28;1.98;;;1.00;;
74616;SDS011;63123;50.906;4.198;2023-03-23T08:27:56;2.60;;;0.93;;
74616;SDS011;63123;50.906;4.198;2023-03-23T08:30:23;1.13;;;0.75;;
74616;SDS011;63123;50.906;4.198;2023-03-23T08:32:51;3.00;;;0.85;;
74616;SDS011;63123;50.906;4.198;2023-03-23T08:35:17;1.40;;;0.90;;
74616;SDS011;63123;50.906;4.198;2023-03-23T08:37:44;2.35;;;1.10;;
74616;SDS011;63123;50.906;4.198;2023-03-23T08:40:11;1.48;;;1.13;;
74616;SDS011;63123;50.906;4.198;2023-03-23T08:42:39;2.15;;;0.98;;
74616;SDS011;63123;50.906;4.198;2023-03-23T08:45:07;1.50;;;0.70;;
74616;SDS011;63123;50.906;4.198;2023-03-23T08:47:35;1.77;;;1.13;;
74616;SDS011;63123;50.906;4.198;2023-03-23T08:50:02;1.20;;;0.88;;
74616;SDS011;63123;50.906;4.198;2023-03-23T08:52:29;1.23;;;1.10;;
74616;SDS011;63123;50.906;4.198;2023-03-23T08:54:54;2.17;;;1.17;;
74616;SDS011;63123;50.906;4.198;2023-03-23T08:57:21;2.42;;;1.20;;
74616;SDS011;63123;50.906;4.198;2023-03-23T08:59:48;1.45;;;0.80;;
74616;SDS011;63123;50.906;4.198;2023-03-23T09:02:13;2.30;;;0.80;;
74616;SDS011;63123;50.906;4.198;2023-03-23T09:04:40;1.92;;;1.23;;
74616;SDS011;63123;50.906;4.198;2023-03-23T09:07:07;2.55;;;1.17;;
74616;SDS011;63123;50.906;4.198;2023-03-23T09:09:34;0.93;;;0.70;;
74616;SDS011;63123;50.906;4.198;2023-03-23T09:12:00;2.10;;;1.48;;
74616;SDS011;63123;50.906;4.198;2023-03-23T09:14:26;0.93;;;0.80;;
74616;SDS011;63123;50.906;4.198;2023-03-23T09:16:51;1.02;;;0.80;;
74616;SDS011;63123;50.906;4.198;2023-03-23T09:19:17;1.25;;;0.73;;
74616;SDS011;63123;50.906;4.198;2023-03-23T09:21:43;1.27;;;1.00;;
74616;SDS011;63123;50.906;4.198;2023-03-23T09:24:10;1.35;;;0.82;;
74616;SDS011;63123;50.906;4.198;2023-03-23T09:26:36;1.30;;;0.90;;
74616;SDS011;63123;50.906;4.198;2023-03-23T09:29:02;0.90;;;0.90;;
74616;SDS011;63123;50.906;4.198;2023-03-23T09:31:29;1.30;;;0.98;;
74616;SDS011;63123;50.906;4.198;2023-03-23T09:33:56;1.92;;;0.93;;
74616;SDS011;63123;50.906;4.198;2023-03-23T09:36:24;2.03;;;1.02;;
74616;SDS011;63123;50.906;4.198;2023-03-23T09:38:51;1.48;;;0.82;;
74616;SDS011;63123;50.906;4.198;2023-03-23T09:41:36;1.25;;;0.90;;
74616;SDS011;63123;50.906;4.198;2023-03-23T09:47:06;1.10;;;0.90;;
74616;SDS011;63123;50.906;4.198;2023-03-23T09:49:52;1.60;;;1.13;;
74616;SDS011;63123;50.906;4.198;2023-03-23T09:55:11;2.35;;;1.10;;
74616;SDS011;63123;50.906;4.198;2023-03-23T09:57:59;2.70;;;1.10;;
74616;SDS011;63123;50.906;4.198;2023-03-23T10:01:02;1.75;;;1.05;;
74616;SDS011;63123;50.906;4.198;2023-03-23T10:03:25;1.40;;;0.98;;
74616;SDS011;63123;50.906;4.198;2023-03-23T10:05:55;1.60;;;0.90;;
74616;SDS011;63123;50.906;4.198;2023-03-23T10:08:22;1.50;;;0.98;;
74616;SDS011;63123;50.906;4.198;2023-03-23T10:13:59;1.80;;;1.23;;
74616;SDS011;63123;50.906;4.198;2023-03-23T10:16:37;1.13;;;0.82;;
74616;SDS011;63123;50.906;4.198;2023-03-23T10:21:39;1.48;;;1.00;;
74616;SDS011;63123;50.906;4.198;2023-03-23T10:24:08;1.35;;;0.80;;
74616;SDS011;63123;50.906;4.198;2023-03-23T10:27:24;2.30;;;1.25;;
74616;SDS011;63123;50.906;4.198;2023-03-23T10:29:28;2.42;;;1.10;;
74616;SDS011;63123;50.906;4.198;2023-03-23T10:31:59;1.17;;;0.88;;
74616;SDS011;63123;50.906;4.198;2023-03-23T10:34:51;1.02;;;0.90;;
74616;SDS011;63123;50.906;4.198;2023-03-23T10:37:32;0.80;;;0.80;;
74616;SDS011;63123;50.906;4.198;2023-03-23T10:40:05;1.48;;;0.82;;
74616;SDS011;63123;50.906;4.198;2023-03-23T10:42:38;1.25;;;0.90;;
74616;SDS011;63123;50.906;4.198;2023-03-23T10:47:44;1.85;;;1.08;;
74616;SDS011;63123;50.906;4.198;2023-03-23T10:50:17;1.20;;;0.93;;
74616;SDS011;63123;50.906;4.198;2023-03-23T10:52:48;1.55;;;0.80;;
74616;SDS011;63123;50.906;4.198;2023-03-23T10:55:19;2.30;;;0.90;;
74616;SDS011;63123;50.906;4.198;2023-03-23T10:58:08;2.22;;;0.90;;
74616;SDS011;63123;50.906;4.198;2023-03-23T11:00:45;1.45;;;0.93;;
74616;SDS011;63123;50.906;4.198;2023-03-23T11:05:42;1.60;;;1.13;;
74616;SDS011;63123;50.906;4.198;2023-03-23T11:08:12;2.17;;;1.02;;
74616;SDS011;63123;50.906;4.198;2023-03-23T11:10:51;1.67;;;0.95;;
74616;SDS011;63123;50.906;4.198;2023-03-23T11:13:19;1.40;;;0.90;;
74616;SDS011;63123;50.906;4.198;2023-03-23T11:15:47;1.40;;;0.85;;
74616;SDS011;63123;50.906;4.198;2023-03-23T11:21:02;1.80;;;1.08;;
74616;SDS011;63123;50.906;4.198;2023-03-23T11:23:36;1.92;;;1.17;;
74616;SDS011;63123;50.906;4.198;2023-03-23T11:28:36;1.70;;;0.93;;
74616;SDS011;63123;50.906;4.198;2023-03-23T11:31:04;2.28;;;1.20;;
74616;SDS011;63123;50.906;4.198;2023-03-23T11:36:18;1.75;;;1.17;;
74616;SDS011;63123;50.906;4.198;2023-03-23T11:38:44;2.10;;;1.20;;
74616;SDS011;63123;50.906;4.198;2023-03-23T11:41:11;1.33;;;1.00;;
74616;SDS011;63123;50.906;4.198;2023-03-23T11:43:43;1.85;;;1.10;;
74616;SDS011;63123;50.906;4.198;2023-03-23T11:48:43;1.60;;;1.10;;
74616;SDS011;63123;50.906;4.198;2023-03-23T11:51:17;1.63;;;1.30;;
74616;SDS011;63123;50.906;4.198;2023-03-23T11:56:54;1.88;;;1.08;;
74616;SDS011;63123;50.906;4.198;2023-03-23T11:59:28;1.65;;;1.00;;
74616;SDS011;63123;50.906;4.198;2023-03-23T12:05:02;1.65;;;1.20;;
74616;SDS011;63123;50.906;4.198;2023-03-23T12:08:08;1.63;;;0.90;;
74616;SDS011;63123;50.906;4.198;2023-03-23T12:18:55;1.88;;;1.27;;
74616;SDS011;63123;50.906;4.198;2023-03-23T12:33:21;1.55;;;0.93;;
74616;SDS011;63123;50.906;4.198;2023-03-23T12:36:00;1.30;;;1.13;;
74616;SDS011;63123;50.906;4.198;2023-03-23T12:44:28;1.00;;;0.90;;
74616;SDS011;63123;50.906;4.198;2023-03-23T12:49:46;1.40;;;0.90;;
74616;SDS011;63123;50.906;4.198;2023-03-23T12:52:22;3.30;;;1.40;;
74616;SDS011;63123;50.906;4.198;2023-03-23T12:55:03;1.65;;;1.10;;
74616;SDS011;63123;50.906;4.198;2023-03-23T12:57:56;2.47;;;1.75;;
74616;SDS011;63123;50.906;4.198;2023-03-23T13:06:22;2.50;;;1.20;;
74616;SDS011;63123;50.906;4.198;2023-03-23T13:09:04;1.58;;;1.17;;
74616;SDS011;63123;50.906;4.198;2023-03-23T13:11:32;2.53;;;1.20;;
74616;SDS011;63123;50.906;4.198;2023-03-23T13:16:55;3.05;;;1.30;;
74616;SDS011;63123;50.906;4.198;2023-03-23T13:22:04;2.17;;;1.55;;
74616;SDS011;63123;50.906;4.198;2023-03-23T13:24:38;2.53;;;1.27;;
74616;SDS011;63123;50.906;4.198;2023-03-23T13:27:15;1.70;;;1.05;;
74616;SDS011;63123;50.906;4.198;2023-03-23T13:29:45;1.50;;;1.20;;
74616;SDS011;63123;50.906;4.198;2023-03-23T13:32:12;2.08;;;1.38;;
74616;SDS011;63123;50.906;4.198;2023-03-23T13:34:41;2.10;;;1.45;;
74616;SDS011;63123;50.906;4.198;2023-03-23T13:39:56;2.30;;;1.33;;
74616;SDS011;63123;50.906;4.198;2023-03-23T13:42:47;2.15;;;1.40;;
74616;SDS011;63123;50.906;4.198;2023-03-23T13:45:19;1.63;;;1.15;;
74616;SDS011;63123;50.906;4.198;2023-03-23T13:50:31;3.13;;;1.27;;
74616;SDS011;63123;50.906;4.198;2023-03-23T13:53:15;2.40;;;1.33;;
74616;SDS011;63123;50.906;4.198;2023-03-23T13:59:13;2.53;;;1.15;;
74616;SDS011;63123;50.906;4.198;2023-03-23T14:01:40;2.17;;;1.20;;
74616;SDS011;63123;50.906;4.198;2023-03-23T14:04:11;1.77;;;1.20;;
74616;SDS011;63123;50.906;4.198;2023-03-23T14:06:40;2.17;;;1.50;;
74616;SDS011;63123;50.906;4.198;2023-03-23T14:09:10;2.40;;;1.10;;
74616;SDS011;63123;50.906;4.198;2023-03-23T14:14:26;1.00;;;0.88;;
74616;SDS011;63123;50.906;4.198;2023-03-23T14:17:05;1.80;;;1.05;;
74616;SDS011;63123;50.906;4.198;2023-03-23T14:19:38;4.45;;;1.20;;
74616;SDS011;63123;50.906;4.198;2023-03-23T14:22:16;2.10;;;1.30;;
74616;SDS011;63123;50.906;4.198;2023-03-23T14:25:12;2.55;;;1.10;;
74616;SDS011;63123;50.906;4.198;2023-03-23T14:27:40;2.10;;;1.13;;
74616;SDS011;63123;50.906;4.198;2023-03-23T14:30:18;1.33;;;1.23;;
74616;SDS011;63123;50.906;4.198;2023-03-23T14:32:45;1.90;;;1.20;;
74616;SDS011;63123;50.906;4.198;2023-03-23T14:37:50;2.55;;;1.70;;
74616;SDS011;63123;50.906;4.198;2023-03-23T14:40:16;2.33;;;1.63;;
74616;SDS011;63123;50.906;4.198;2023-03-23T14:42:43;2.05;;;1.42;;
74616;SDS011;63123;50.906;4.198;2023-03-23T14:45:11;3.17;;;1.50;;
74616;SDS011;63123;50.906;4.198;2023-03-23T14:47:42;2.20;;;1.30;;
74616;SDS011;63123;50.906;4.198;2023-03-23T14:50:24;2.40;;;1.40;;
74616;SDS011;63123;50.906;4.198;2023-03-23T14:55:17;1.95;;;1.30;;
74616;SDS011;63123;50.906;4.198;2023-03-23T14:57:50;1.88;;;1.40;;
74616;SDS011;63123;50.906;4.198;2023-03-23T15:00:19;1.80;;;1.30;;
74616;SDS011;63123;50.906;4.198;2023-03-23T15:02:45;2.15;;;1.25;;
74616;SDS011;63123;50.906;4.198;2023-03-23T15:05:16;2.03;;;1.30;;
74616;SDS011;63123;50.906;4.198;2023-03-23T15:07:54;1.90;;;1.33;;
74616;SDS011;63123;50.906;4.198;2023-03-23T15:10:25;1.40;;;1.05;;
74616;SDS011;63123;50.906;4.198;2023-03-23T15:12:50;1.83;;;1.40;;
74616;SDS011;63123;50.906;4.198;2023-03-23T15:17:54;3.45;;;1.52;;
74616;SDS011;63123;50.906;4.198;2023-03-23T15:22:51;1.90;;;1.30;;
74616;SDS011;63123;50.906;4.198;2023-03-23T15:25:19;2.42;;;1.30;;
74616;SDS011;63123;50.906;4.198;2023-03-23T15:27:55;2.42;;;1.67;;
74616;SDS011;63123;50.906;4.198;2023-03-23T15:32:49;1.95;;;1.55;;
74616;SDS011;63123;50.906;4.198;2023-03-23T15:35:19;2.22;;;1.48;;
74616;SDS011;63123;50.906;4.198;2023-03-23T15:38:33;2.28;;;1.42;;
74616;SDS011;63123;50.906;4.198;2023-03-23T15:40:44;1.98;;;1.20;;
74616;SDS011;63123;50.906;4.198;2023-03-23T15:45:53;1.48;;;1.25;;
74616;SDS011;63123;50.906;4.198;2023-03-23T15:48:30;3.60;;;1.60;;
74616;SDS011;63123;50.906;4.198;2023-03-23T15:51:18;2.15;;;1.50;;
74616;SDS011;63123;50.906;4.198;2023-03-23T15:53:45;2.70;;;1.50;;
74616;SDS011;63123;50.906;4.198;2023-03-23T15:56:11;2.75;;;1.60;;
74616;SDS011;63123;50.906;4.198;2023-03-23T15:58:38;1.75;;;1.30;;
74616;SDS011;63123;50.906;4.198;2023-03-23T16:01:12;1.67;;;1.27;;
74616;SDS011;63123;50.906;4.198;2023-03-23T16:06:05;3.95;;;1.80;;
74616;SDS011;63123;50.906;4.198;2023-03-23T16:08:31;2.47;;;1.67;;
74616;SDS011;63123;50.906;4.198;2023-03-23T16:10:56;3.10;;;1.73;;
74616;SDS011;63123;50.906;4.198;2023-03-23T16:13:24;2.72;;;1.63;;
74616;SDS011;63123;50.906;4.198;2023-03-23T16:15:51;2.70;;;1.65;;
74616;SDS011;63123;50.906;4.198;2023-03-23T16:18:19;1.42;;;1.17;;
74616;SDS011;63123;50.906;4.198;2023-03-23T16:20:49;2.60;;;1.80;;
74616;SDS011;63123;50.906;4.198;2023-03-23T16:23:15;2.08;;;1.63;;
74616;SDS011;63123;50.906;4.198;2023-03-23T16:25:41;2.10;;;1.85;;
74616;SDS011;63123;50.906;4.198;2023-03-23T16:28:13;2.40;;;1.20;;
74616;SDS011;63123;50.906;4.198;2023-03-23T16:30:39;2.63;;;1.50;;
74616;SDS011;63123;50.906;4.198;2023-03-23T16:33:05;1.90;;;1.38;;
74616;SDS011;63123;50.906;4.198;2023-03-23T16:35:31;4.15;;;1.95;;
74616;SDS011;63123;50.906;4.198;2023-03-23T16:37:57;3.33;;;1.42;;
74616;SDS011;63123;50.906;4.198;2023-03-23T16:40:23;1.83;;;1.30;;
74616;SDS011;63123;50.906;4.198;2023-03-23T16:42:49;2.17;;;2.00;;
74616;SDS011;63123;50.906;4.198;2023-03-23T16:45:15;3.17;;;1.50;;
74616;SDS011;63123;50.906;4.198;2023-03-23T16:47:41;3.47;;;1.88;;
74616;SDS011;63123;50.906;4.198;2023-03-23T16:50:08;2.75;;;1.42;;
74616;SDS011;63123;50.906;4.198;2023-03-23T16:52:36;2.13;;;1.55;;
74616;SDS011;63123;50.906;4.198;2023-03-23T16:55:02;2.97;;;2.05;;
74616;SDS011;63123;50.906;4.198;2023-03-23T16:57:28;2.40;;;1.88;;
74616;SDS011;63123;50.906;4.198;2023-03-23T16:59:56;2.63;;;1.77;;
74616;SDS011;63123;50.906;4.198;2023-03-23T17:02:22;3.30;;;1.45;;
74616;SDS011;63123;50.906;4.198;2023-03-23T17:04:48;2.15;;;1.58;;
74616;SDS011;63123;50.906;4.198;2023-03-23T17:07:15;2.22;;;1.80;;